Time;durP1;ratioP1;P1;durP2;ratioP2;P2;SDS_P1;SDS_P2;PMS_P1;PMS_P2;Temp;Humidity;BMP_temperature;BMP_pressure;BME280_temperature;BME280_humidity;BME280_pressure;Samples;Min_cycle;Max_cycle;Signal;HPM_P1;HPM_P2
2022/08/27 00:01:15;;;;;;;33.92;26.70;;;;;17.70;94044.00;;;;7392031;19;20531;-77
2022/08/27 00:03:46;;;;;;;28.60;23.77;;;;;17.70;94035.00;;;;7389321;19;20176;-75
2022/08/27 00:06:24;;;;;;;31.48;25.35;;;;;17.70;94036.00;;;;7392479;19;20148;-75
2022/08/27 00:08:53;;;;;;;33.90;24.27;;;;;17.60;94043.00;;;;7393261;19;20627;-78
2022/08/27 00:11:24;;;;;;;28.80;24.42;;;;;17.70;94046.00;;;;7396123;19;20144;-75
2022/08/27 00:13:57;;;;;;;34.58;24.88;;;;;17.70;94038.00;;;;7397302;19;20531;-78
2022/08/27 00:16:25;;;;;;;38.65;26.20;;;;;17.70;94038.00;;;;7399147;19;20137;-77
2022/08/27 00:18:54;;;;;;;35.00;27.63;;;;;17.80;94031.00;;;;7399827;19;20155;-76
2022/08/27 00:21:31;;;;;;;34.60;25.15;;;;;17.60;94036.00;;;;7397800;19;20152;-76
2022/08/27 00:23:59;;;;;;;37.47;25.40;;;;;17.60;94028.00;;;;7397489;19;20255;-76
2022/08/27 00:26:27;;;;;;;24.85;21.35;;;;;17.70;94036.00;;;;7402369;19;20516;-75
2022/08/27 00:29:07;;;;;;;27.90;21.52;;;;;17.60;94032.00;;;;7398721;19;20506;-76
2022/08/27 00:31:35;;;;;;;24.00;20.38;;;;;17.60;94038.00;;;;7398539;19;20132;-76
2022/08/27 00:34:09;;;;;;;26.75;22.00;;;;;17.50;94032.00;;;;7398366;19;20185;-77
2022/08/27 00:36:40;;;;;;;29.05;21.65;;;;;17.40;94039.00;;;;7396925;19;20166;-77
2022/08/27 00:39:07;;;;;;;28.33;20.80;;;;;17.30;94044.00;;;;7400148;19;20145;-77
2022/08/27 00:41:42;;;;;;;24.70;18.77;;;;;17.30;94031.00;;;;7400172;19;20152;-77
2022/08/27 00:44:10;;;;;;;18.67;15.52;;;;;17.40;94033.00;;;;7395160;19;20599;-76
2022/08/27 00:46:46;;;;;;;18.75;15.23;;;;;17.40;94025.00;;;;7399788;19;20161;-74
2022/08/27 00:49:30;;;;;;;16.67;14.75;;;;;17.50;94031.00;;;;7398765;19;20679;-76
2022/08/27 00:52:05;;;;;;;17.98;15.38;;;;;17.50;94016.00;;;;7398838;19;20208;-76
2022/08/27 00:54:40;;;;;;;16.55;13.80;;;;;17.30;94021.00;;;;7396641;19;20186;-75
2022/08/27 00:57:07;;;;;;;13.90;12.48;;;;;17.30;94019.00;;;;7398009;19;20140;-77
2022/08/27 00:59:38;;;;;;;14.02;12.15;;;;;17.30;94018.00;;;;7395113;19;20242;-75
2022/08/27 01:02:18;;;;;;;15.05;12.00;;;;;17.20;94008.00;;;;7397384;19;20632;-75
2022/08/27 01:05:10;;;;;;;12.20;10.90;;;;;17.20;94006.00;;;;7395478;19;20156;-77
2022/08/27 01:07:48;;;;;;;15.18;11.52;;;;;17.40;93999.00;;;;7398478;19;20141;-77
2022/08/27 01:10:19;;;;;;;12.52;11.13;;;;;17.30;94001.00;;;;7399049;19;20133;-77
2022/08/27 01:12:57;;;;;;;15.88;11.43;;;;;17.30;93999.00;;;;7398181;19;20129;-76
2022/08/27 01:15:26;;;;;;;13.68;11.15;;;;;17.20;94008.00;;;;7394026;19;20931;-75
2022/08/27 01:18:04;;;;;;;14.38;11.25;;;;;17.30;94002.00;;;;7397782;19;20164;-75
2022/08/27 01:20:41;;;;;;;13.05;9.85;;;;;17.30;94000.00;;;;7398095;19;20136;-75
2022/08/27 01:23:24;;;;;;;11.50;10.27;;;;;17.30;93985.00;;;;7395835;19;20525;-76
2022/08/27 01:25:52;;;;;;;12.45;10.65;;;;;17.20;93983.00;;;;7396173;19;20188;-75
2022/08/27 01:28:28;;;;;;;14.18;11.43;;;;;17.20;93984.00;;;;7396831;19;20718;-75
2022/08/27 01:31:06;;;;;;;16.08;12.40;;;;;17.10;93991.00;;;;7397612;19;20160;-75
2022/08/27 01:33:52;;;;;;;13.13;11.73;;;;;17.10;93988.00;;;;7396090;19;20159;-76
2022/08/27 01:36:19;;;;;;;13.50;12.10;;;;;17.00;93992.00;;;;7395463;19;20153;-75
2022/08/27 01:38:54;;;;;;;11.43;10.32;;;;;17.00;93993.00;;;;7396421;19;20647;-75
2022/08/27 01:41:24;;;;;;;12.93;11.20;;;;;17.00;93994.00;;;;7397321;19;20527;-75
2022/08/27 01:43:52;;;;;;;15.02;12.30;;;;;17.00;93993.00;;;;7395926;19;20269;-75
2022/08/27 01:46:27;;;;;;;12.80;11.48;;;;;17.00;93996.00;;;;7395755;19;20189;-75
2022/08/27 01:48:55;;;;;;;13.20;11.60;;;;;17.00;93992.00;;;;7395723;19;20137;-75
2022/08/27 01:51:23;;;;;;;14.38;12.65;;;;;17.10;93991.00;;;;7395688;19;20157;-77
2022/08/27 01:53:56;;;;;;;13.48;11.43;;;;;17.00;93999.00;;;;7397164;19;20228;-76
2022/08/27 01:56:24;;;;;;;13.63;12.18;;;;;16.90;93994.00;;;;7396224;19;20164;-74
2022/08/27 01:58:52;;;;;;;12.88;11.57;;;;;16.90;93999.00;;;;7394177;19;20216;-76
2022/08/27 02:01:25;;;;;;;15.90;12.48;;;;;16.90;94001.00;;;;7395663;19;20156;-76
2022/08/27 02:03:53;;;;;;;16.60;12.98;;;;;16.90;94004.00;;;;7393611;19;20172;-75
2022/08/27 02:06:20;;;;;;;14.48;12.75;;;;;16.90;93995.00;;;;7393280;19;20162;-76
2022/08/27 02:08:55;;;;;;;14.77;12.05;;;;;16.90;94001.00;;;;7396524;19;20165;-76
2022/08/27 02:11:22;;;;;;;14.95;13.23;;;;;16.90;93998.00;;;;7395069;19;20165;-75
2022/08/27 02:13:49;;;;;;;13.43;11.80;;;;;17.00;93998.00;;;;7395209;19;20140;-77
2022/08/27 02:16:23;;;;;;;11.35;10.20;;;;;17.00;94002.00;;;;7394744;19;20958;-76
2022/08/27 02:18:53;;;;;;;11.10;10.00;;;;;17.00;93994.00;;;;7395132;19;20567;-75
2022/08/27 02:21:22;;;;;;;10.43;9.38;;;;;17.00;94000.00;;;;7393995;19;20619;-75
2022/08/27 02:23:56;;;;;;;11.82;10.40;;;;;17.00;94002.00;;;;7393843;19;20195;-75
2022/08/27 02:26:26;;;;;;;15.85;13.32;;;;;17.00;94005.00;;;;7395054;19;20152;-76
2022/08/27 02:28:54;;;;;;;18.02;14.77;;;;;17.10;94012.00;;;;7396158;19;20584;-75
2022/08/27 02:31:28;;;;;;;15.43;13.02;;;;;17.20;94014.00;;;;7393492;19;20192;-74
2022/08/27 02:33:56;;;;;;;17.95;14.98;;;;;17.20;94009.00;;;;7391552;19;20143;-76
2022/08/27 02:36:24;;;;;;;22.25;18.40;;;;;17.00;94021.00;;;;7394998;19;20165;-76
2022/08/27 02:38:59;;;;;;;27.27;21.30;;;;;17.00;94014.00;;;;7395096;19;20663;-74
2022/08/27 02:41:27;;;;;;;26.67;22.90;;;;;17.10;94020.00;;;;7392828;19;20141;-75
2022/08/27 02:43:54;;;;;;;25.95;20.80;;;;;17.10;94014.00;;;;7394275;19;20125;-77
2022/08/27 02:46:31;;;;;;;28.27;23.30;;;;;17.10;94011.00;;;;7390712;19;20877;-74
2022/08/27 02:48:59;;;;;;;37.97;29.80;;;;;17.30;94023.00;;;;7393717;19;20630;-75
2022/08/27 02:51:26;;;;;;;47.63;35.78;;;;;17.20;94020.00;;;;7392590;19;20148;-76
2022/08/27 02:54:02;;;;;;;47.67;37.03;;;;;17.20;94015.00;;;;7395733;19;20159;-76
2022/08/27 02:56:29;;;;;;;49.58;34.38;;;;;17.10;94016.00;;;;7392173;19;20645;-76
2022/08/27 02:58:58;;;;;;;44.65;33.97;;;;;17.10;94006.00;;;;7393842;19;20156;-76
2022/08/27 03:01:31;;;;;;;49.55;36.45;;;;;16.90;94009.00;;;;7394006;19;20144;-75
2022/08/27 03:03:59;;;;;;;51.75;36.78;;;;;16.90;94011.00;;;;7392431;19;20181;-76
2022/08/27 03:06:27;;;;;;;57.08;42.03;;;;;16.90;94005.00;;;;7393470;19;20646;-76
2022/08/27 03:09:02;;;;;;;60.92;42.53;;;;;16.90;94004.00;;;;7392432;19;20187;-77
2022/08/27 03:11:30;;;;;;;66.30;46.83;;;;;16.90;94005.00;;;;7393386;19;20149;-76
2022/08/27 03:13:58;;;;;;;79.07;50.83;;;;;17.00;94002.00;;;;7394653;19;20505;-77
2022/08/27 03:16:36;;;;;;;69.82;49.25;;;;;16.90;94002.00;;;;7389366;19;20139;-77
2022/08/27 03:19:07;;;;;;;75.72;51.65;;;;;16.90;94000.00;;;;7393243;19;20616;-77
2022/08/27 03:21:50;;;;;;;75.28;50.22;;;;;16.80;94001.00;;;;7395329;19;20153;-77
2022/08/27 03:24:21;;;;;;;74.50;51.47;;;;;16.80;93996.00;;;;7393136;19;20550;-75
2022/08/27 03:26:55;;;;;;;78.82;49.70;;;;;16.80;94002.00;;;;7392979;19;20168;-75
2022/08/27 03:29:23;;;;;;;75.95;48.25;;;;;16.70;94002.00;;;;7393839;19;20887;-78
2022/08/27 03:31:50;;;;;;;68.53;45.20;;;;;16.60;94000.00;;;;7393711;19;20508;-75
2022/08/27 03:34:24;;;;;;;74.60;46.90;;;;;16.60;93996.00;;;;7393632;19;20757;-78
2022/08/27 03:36:52;;;;;;;66.50;43.50;;;;;16.70;94000.00;;;;7391598;19;20143;-75
2022/08/27 03:39:19;;;;;;;62.95;40.97;;;;;16.70;94000.00;;;;7392762;19;20595;-77
2022/08/27 03:41:54;;;;;;;56.60;40.38;;;;;16.70;94000.00;;;;7394095;19;20636;-76
2022/08/27 03:44:38;;;;;;;60.72;40.50;;;;;16.70;94003.00;;;;7392745;19;20125;-75
2022/08/27 03:47:12;;;;;;;65.35;41.35;;;;;16.70;93996.00;;;;7388832;19;20170;-76
2022/08/27 03:49:41;;;;;;;63.08;39.28;;;;;16.60;94002.00;;;;7392448;19;20136;-76
2022/08/27 03:52:09;;;;;;;67.32;43.72;;;;;16.70;94000.00;;;;7391549;19;20176;-76
2022/08/27 03:54:44;;;;;;;63.03;43.55;;;;;16.60;94000.00;;;;7389730;19;20595;-75
2022/08/27 03:57:12;;;;;;;58.40;41.17;;;;;16.50;93995.00;;;;7391893;19;20653;-76
2022/08/27 03:59:39;;;;;;;62.33;42.20;;;;;16.50;93998.00;;;;7389936;19;20184;-77
2022/08/27 04:02:15;;;;;;;62.13;41.35;;;;;16.50;93995.00;;;;7391334;19;20153;-76
2022/08/27 04:04:42;;;;;;;62.28;41.38;;;;;16.50;93993.00;;;;7388593;19;20153;-75
2022/08/27 04:07:11;;;;;;;55.50;40.03;;;;;16.40;93995.00;;;;7390582;19;20148;-76
2022/08/27 04:09:44;;;;;;;62.00;40.55;;;;;16.40;93994.00;;;;7393623;19;20636;-75
2022/08/27 04:12:12;;;;;;;56.35;37.95;;;;;16.40;93993.00;;;;7391671;19;20153;-76
2022/08/27 04:14:39;;;;;;;57.58;39.28;;;;;16.50;93983.00;;;;7390001;19;20133;-76
2022/08/27 04:17:14;;;;;;;61.22;39.88;;;;;16.40;93991.00;;;;7389390;19;20480;-76
2022/08/27 04:19:42;;;;;;;58.00;38.00;;;;;16.40;93990.00;;;;7393081;19;20220;-75
2022/08/27 04:22:09;;;;;;;55.42;38.47;;;;;16.50;93990.00;;;;7390458;19;20164;-75
2022/08/27 04:24:43;;;;;;;54.20;37.78;;;;;16.50;93995.00;;;;7389771;19;20149;-75
2022/08/27 04:27:13;;;;;;;58.25;40.00;;;;;16.50;93996.00;;;;7390580;19;20636;-75
2022/08/27 04:29:42;;;;;;;61.00;39.63;;;;;16.60;93996.00;;;;7389957;19;20136;-74
2022/08/27 04:32:28;;;;;;;58.15;36.45;;;;;16.50;93995.00;;;;7390051;19;20521;-75
2022/08/27 04:34:58;;;;;;;63.50;39.97;;;;;16.60;93999.00;;;;7391804;19;20144;-75
2022/08/27 04:37:32;;;;;;;56.42;37.55;;;;;16.50;93995.00;;;;7393229;19;20523;-77
2022/08/27 04:39:59;;;;;;;54.72;35.80;;;;;16.60;94000.00;;;;7392078;19;20161;-74
2022/08/27 04:42:27;;;;;;;61.67;37.42;;;;;16.60;93999.00;;;;7390707;19;20160;-75
2022/08/27 04:45:01;;;;;;;54.70;37.22;;;;;16.50;93994.00;;;;7390689;19;20153;-75
2022/08/27 04:47:29;;;;;;;52.35;35.88;;;;;16.60;93995.00;;;;7388478;19;20156;-75
2022/08/27 04:49:58;;;;;;;55.00;36.25;;;;;16.60;94000.00;;;;7391170;19;20489;-75
2022/08/27 04:52:32;;;;;;;58.63;38.22;;;;;16.60;94002.00;;;;7389732;19;20204;-75
2022/08/27 04:55:07;;;;;;;60.05;41.38;;;;;16.60;94002.00;;;;7390093;19;20152;-75
2022/08/27 04:57:42;;;;;;;63.35;41.92;;;;;16.70;93998.00;;;;7395305;19;20156;-75
2022/08/27 05:00:23;;;;;;;54.22;36.20;;;;;16.70;94003.00;;;;7395868;19;20193;-75
2022/08/27 05:02:57;;;;;;;60.90;41.22;;;;;16.70;93998.00;;;;7396040;19;20168;-76
2022/08/27 05:05:28;;;;;;;59.60;39.22;;;;;16.80;94004.00;;;;7394972;19;20140;-75
2022/08/27 05:07:55;;;;;;;53.00;35.92;;;;;16.80;94005.00;;;;7397251;19;20651;-76
2022/08/27 05:10:47;;;;;;;52.67;37.72;;;;;16.80;93995.00;;;;7398648;19;20156;-76
2022/08/27 05:13:17;;;;;;;58.60;40.90;;;;;16.90;93998.00;;;;7396302;19;20145;-75
2022/08/27 05:16:06;;;;;;;63.05;41.40;;;;;17.00;93995.00;;;;7397644;19;20576;-75
2022/08/27 05:18:35;;;;;;;57.55;37.28;;;;;16.90;93998.00;;;;7395597;19;20159;-76
2022/08/27 05:21:19;;;;;;;55.35;37.67;;;;;16.90;93995.00;;;;7396519;19;20628;-75
2022/08/27 05:23:47;;;;;;;53.55;37.63;;;;;16.90;93990.00;;;;7396697;19;20604;-76
2022/08/27 05:26:21;;;;;;;54.35;37.13;;;;;17.00;93999.00;;;;7399122;19;20143;-75
2022/08/27 05:28:48;;;;;;;48.45;34.35;;;;;17.10;93992.00;;;;7396273;19;20153;-76
2022/08/27 05:31:18;;;;;;;56.03;38.10;;;;;17.20;93999.00;;;;7396659;19;20136;-76
2022/08/27 05:33:54;;;;;;;52.70;36.67;;;;;17.10;93999.00;;;;7398208;19;20152;-76
2022/08/27 05:36:34;;;;;;;56.13;37.55;;;;;17.20;94000.00;;;;7396894;19;20132;-77
2022/08/27 05:39:16;;;;;;;60.13;37.58;;;;;17.10;93997.00;;;;7397539;19;20156;-77
2022/08/27 05:41:43;;;;;;;52.47;35.45;;;;;17.20;93993.00;;;;7390119;19;20623;-77
2022/08/27 05:44:18;;;;;;;67.35;41.78;;;;;17.30;93990.00;;;;7391211;19;20148;-77
2022/08/27 05:47:06;;;;;;;60.95;38.65;;;;;17.20;93998.00;;;;7398649;19;20487;-77
2022/08/27 05:49:40;;;;;;;67.05;42.22;;;;;17.30;93998.00;;;;7394849;19;20169;-78
2022/08/27 05:52:09;;;;;;;59.30;41.38;;;;;17.10;93996.00;;;;7395410;19;20132;-76
2022/08/27 05:54:38;;;;;;;60.58;39.42;;;;;17.10;93999.00;;;;7395616;19;20145;-75
2022/08/27 05:57:13;;;;;;;58.25;40.33;;;;;17.00;93997.00;;;;7394959;19;20188;-75
2022/08/27 06:02:55;;;;;;;54.33;39.05;;;;;17.10;94003.00;;;;7395042;19;20180;-76
2022/08/27 06:05:23;;;;;;;66.70;43.15;;;;;17.10;93996.00;;;;7394585;19;20141;-75
2022/08/27 06:07:51;;;;;;;70.00;43.17;;;;;17.10;93997.00;;;;7397633;19;20588;-75
2022/08/27 06:10:24;;;;;;;62.45;42.58;;;;;17.30;94000.00;;;;7394731;19;20136;-74
2022/08/27 06:12:52;;;;;;;59.90;40.90;;;;;17.20;94000.00;;;;7394182;19;20236;-76
2022/08/27 06:15:23;;;;;;;67.80;42.72;;;;;17.20;93999.00;;;;7395864;19;20145;-75
2022/08/27 06:17:58;;;;;;;61.20;40.75;;;;;17.00;93994.00;;;;7395791;19;20156;-74
2022/08/27 06:20:25;;;;;;;58.65;41.17;;;;;17.10;94002.00;;;;7393609;19;20178;-74
2022/08/27 06:22:54;;;;;;;55.35;37.60;;;;;17.10;94005.00;;;;7394558;19;20627;-76
2022/08/27 06:25:31;;;;;;;51.58;38.03;;;;;17.00;94002.00;;;;7393088;19;20182;-76
2022/08/27 06:28:00;;;;;;;56.53;37.33;;;;;16.90;94006.00;;;;7396874;19;20513;-76
2022/08/27 06:30:28;;;;;;;57.13;38.10;;;;;16.90;94011.00;;;;7394076;19;20192;-74
2022/08/27 06:33:01;;;;;;;57.15;37.53;;;;;17.00;94008.00;;;;7395080;19;20559;-74
2022/08/27 06:35:29;;;;;;;58.75;40.00;;;;;17.00;94010.00;;;;7395283;19;20150;-76
2022/08/27 06:38:00;;;;;;;59.15;39.67;;;;;17.00;94005.00;;;;7395096;19;20168;-75
2022/08/27 06:40:38;;;;;;;60.47;36.50;;;;;17.00;94009.00;;;;7393653;19;20223;-76
2022/08/27 06:43:06;;;;;;;49.78;35.15;;;;;17.10;94012.00;;;;7393539;19;20148;-76
2022/08/27 06:45:38;;;;;;;56.45;36.28;;;;;17.10;94007.00;;;;7392217;19;20152;-74
2022/08/27 06:48:11;;;;;;;51.22;34.63;;;;;17.10;94013.00;;;;7394715;19;20177;-75
2022/08/27 06:50:41;;;;;;;49.03;34.60;;;;;17.20;94009.00;;;;7392858;19;20156;-75
2022/08/27 06:53:09;;;;;;;51.97;35.03;;;;;17.20;94007.00;;;;7394747;19;21081;-75
2022/08/27 06:55:46;;;;;;;57.30;34.95;;;;;17.40;94011.00;;;;7394673;19;20142;-76
2022/08/27 06:58:15;;;;;;;47.35;33.33;;;;;17.50;94018.00;;;;7393805;19;20147;-74
2022/08/27 07:00:43;;;;;;;55.00;34.90;;;;;17.60;94014.00;;;;7391038;19;20173;-75
2022/08/27 07:03:17;;;;;;;49.70;35.15;;;;;17.60;94018.00;;;;7391953;19;20227;-74
2022/08/27 07:05:45;;;;;;;45.88;32.85;;;;;17.60;94011.00;;;;7392080;19;20276;-76
2022/08/27 07:08:13;;;;;;;43.63;30.10;;;;;17.60;94019.00;;;;7394919;19;20162;-77
2022/08/27 07:10:47;;;;;;;44.75;32.03;;;;;17.50;94015.00;;;;7393350;19;20149;-76
2022/08/27 07:13:14;;;;;;;45.42;30.42;;;;;17.50;94012.00;;;;7394171;19;20223;-75
2022/08/27 07:15:42;;;;;;;38.38;28.08;;;;;17.50;94014.00;;;;7391300;19;20147;-75
2022/08/27 07:18:17;;;;;;;42.58;29.25;;;;;17.50;94017.00;;;;7392822;19;20519;-76
2022/08/27 07:20:53;;;;;;;42.20;28.73;;;;;17.50;94022.00;;;;7390552;19;20148;-77
2022/08/27 07:23:29;;;;;;;39.30;26.70;;;;;17.50;94027.00;;;;7392894;19;20160;-77
2022/08/27 07:25:56;;;;;;;39.83;27.35;;;;;17.50;94025.00;;;;7391581;19;20580;-76
2022/08/27 07:28:25;;;;;;;37.45;27.02;;;;;17.50;94027.00;;;;7392552;19;20152;-76
2022/08/27 07:30:59;;;;;;;38.25;27.92;;;;;17.30;94030.00;;;;7392889;19;20152;-77
2022/08/27 07:33:26;;;;;;;42.65;26.30;;;;;17.40;94037.00;;;;7392521;19;20156;-75
2022/08/27 07:35:54;;;;;;;40.35;27.20;;;;;17.40;94039.00;;;;7393209;19;20141;-76
2022/08/27 07:38:27;;;;;;;36.80;26.73;;;;;17.30;94045.00;;;;7393603;19;20257;-74
2022/08/27 07:40:55;;;;;;;40.50;27.70;;;;;17.40;94042.00;;;;7394623;19;20152;-76
2022/08/27 07:46:21;;;;;;;36.03;27.92;;;;;17.30;94039.00;;;;7390650;19;20160;-75
2022/08/27 07:48:49;;;;;;;35.13;25.33;;;;;17.30;94047.00;;;;7393040;19;20153;-74
2022/08/27 07:51:26;;;;;;;29.83;24.75;;;;;17.40;94046.00;;;;7389473;19;20162;-74
2022/08/27 07:53:55;;;;;;;34.35;25.88;;;;;17.40;94048.00;;;;7393025;19;20259;-77
2022/08/27 07:56:30;;;;;;;31.27;23.95;;;;;17.40;94046.00;;;;7392241;19;20151;-74
2022/08/27 07:59:11;;;;;;;29.90;21.17;;;;;17.50;94050.00;;;;7391077;19;20635;-77
2022/08/27 08:01:47;;;;;;;35.15;25.80;;;;;17.50;94046.00;;;;7391220;19;20148;-77
2022/08/27 08:04:15;;;;;;;39.03;25.80;;;;;17.50;94052.00;;;;7390422;19;20244;-75
2022/08/27 08:06:47;;;;;;;39.75;29.65;;;;;17.40;94057.00;;;;7393064;19;20129;-76
2022/08/27 08:09:22;;;;;;;41.85;30.77;;;;;17.20;94055.00;;;;7391127;19;20145;-75
2022/08/27 08:11:51;;;;;;;49.35;32.65;;;;;17.30;94053.00;;;;7390701;19;20616;-76
2022/08/27 08:14:19;;;;;;;43.40;30.45;;;;;17.30;94053.00;;;;7392897;19;20140;-77
2022/08/27 08:16:57;;;;;;;44.60;31.08;;;;;17.30;94052.00;;;;7386172;19;20144;-78
2022/08/27 08:19:25;;;;;;;42.83;30.13;;;;;17.40;94051.00;;;;7391902;19;20149;-75
2022/08/27 08:21:52;;;;;;;51.35;35.78;;;;;17.40;94059.00;;;;7388913;19;20225;-76
2022/08/27 08:24:33;;;;;;;54.58;35.10;;;;;17.30;94058.00;;;;7392660;19;20133;-76
2022/08/27 08:27:01;;;;;;;53.33;33.58;;;;;17.70;94053.00;;;;7391569;19;20125;-77
2022/08/27 08:29:36;;;;;;;54.20;35.17;;;;;17.70;94048.00;;;;7390561;19;20156;-75
2022/08/27 08:32:06;;;;;;;45.97;33.35;;;;;17.60;94052.00;;;;7393285;19;20136;-77
2022/08/27 08:34:34;;;;;;;51.60;35.65;;;;;17.70;94058.00;;;;7398102;19;20535;-75
2022/08/27 08:37:09;;;;;;;50.63;35.45;;;;;17.70;94061.00;;;;7399591;19;20646;-74
2022/08/27 08:39:37;;;;;;;47.85;33.33;;;;;17.60;94063.00;;;;7397413;19;20149;-77
2022/08/27 08:42:11;;;;;;;45.58;31.13;;;;;17.60;94061.00;;;;7394722;19;20201;-77
2022/08/27 08:44:51;;;;;;;49.50;34.65;;;;;17.60;94052.00;;;;7397950;19;20160;-76
2022/08/27 08:47:30;;;;;;;49.10;33.05;;;;;17.70;94045.00;;;;7399109;19;20139;-77
2022/08/27 08:50:12;;;;;;;47.45;31.38;;;;;17.90;94054.00;;;;7398089;19;20156;-75
2022/08/27 08:52:58;;;;;;;46.40;32.80;;;;;18.00;94051.00;;;;7397730;19;20132;-76
2022/08/27 08:55:46;;;;;;;54.45;35.40;;;;;18.10;94064.00;;;;7397348;19;20180;-75
2022/08/27 08:58:45;;;;;;;48.38;32.10;;;;;18.10;94064.00;;;;7399159;19;20478;-77
2022/08/27 09:01:26;;;;;;;53.75;33.55;;;;;18.00;94072.00;;;;7397894;19;20175;-76
2022/08/27 09:03:58;;;;;;;59.72;34.13;;;;;17.80;94065.00;;;;7395525;19;20533;-75
2022/08/27 09:06:54;;;;;;;49.90;36.80;;;;;17.70;94068.00;;;;7396090;19;20160;-76
2022/08/27 09:09:42;;;;;;;53.63;36.28;;;;;17.60;94079.00;;;;7397049;19;20150;-75
2022/08/27 09:12:23;;;;;;;58.58;38.45;;;;;17.50;94074.00;;;;7397549;19;20612;-74
2022/08/27 09:15:18;;;;;;;53.97;38.92;;;;;17.40;94075.00;;;;7398633;19;20143;-75
2022/08/27 09:18:08;;;;;;;177.02;43.33;;;;;17.50;94086.00;;;;7397841;19;20132;-74
2022/08/27 09:20:46;;;;;;;73.78;39.15;;;;;17.50;94081.00;;;;7397259;19;20179;-74
2022/08/27 09:23:44;;;;;;;68.93;39.95;;;;;17.50;94080.00;;;;7394299;19;20176;-75
2022/08/27 09:26:25;;;;;;;86.78;40.80;;;;;17.50;94082.00;;;;7395992;19;20145;-74
2022/08/27 09:29:19;;;;;;;69.38;39.80;;;;;17.40;94079.00;;;;7392663;19;20503;-76
2022/08/27 09:31:59;;;;;;;45.38;35.10;;;;;17.50;94079.00;;;;7396359;19;20616;-74
2022/08/27 09:34:40;;;;;;;46.63;33.78;;;;;17.50;94085.00;;;;7396079;19;20633;-76
2022/08/27 09:37:15;;;;;;;47.35;32.83;;;;;17.60;94089.00;;;;7396308;19;20173;-75
2022/08/27 09:40:25;;;;;;;70.55;34.30;;;;;17.50;94090.00;;;;7395273;19;20132;-74
2022/08/27 09:42:56;;;;;;;48.03;31.50;;;;;17.40;94085.00;;;;7393868;19;20156;-77
2022/08/27 09:45:32;;;;;;;52.58;32.75;;;;;17.40;94080.00;;;;7394487;19;20160;-75
2022/08/27 09:48:02;;;;;;;85.82;35.92;;;;;17.40;94078.00;;;;7395912;19;20144;-75
2022/08/27 09:50:55;;;;;;;58.53;31.00;;;;;17.30;94075.00;;;;7396908;19;20173;-75
2022/08/27 09:53:37;;;;;;;71.72;32.58;;;;;17.30;94079.00;;;;7391927;19;20204;-74
2022/08/27 09:56:08;;;;;;;55.30;29.65;;;;;17.30;94074.00;;;;7394403;19;20157;-76
2022/08/27 09:58:49;;;;;;;56.63;32.92;;;;;17.30;94080.00;;;;7395362;19;20168;-77
2022/08/27 10:01:26;;;;;;;43.88;31.00;;;;;17.30;94080.00;;;;7398170;19;20137;-76
2022/08/27 10:04:12;;;;;;;54.05;32.25;;;;;17.50;94078.00;;;;7393523;19;20669;-76
2022/08/27 10:06:50;;;;;;;42.08;29.13;;;;;17.30;94079.00;;;;7395049;19;20168;-77
2022/08/27 10:09:46;;;;;;;44.08;27.45;;;;;17.30;94080.00;;;;7393657;19;20137;-75
2022/08/27 10:12:22;;;;;;;39.40;26.60;;;;;17.30;94080.00;;;;7392896;19;20144;-77
2022/08/27 10:14:59;;;;;;;42.10;29.88;;;;;17.30;94076.00;;;;7394788;19;20117;-77
2022/08/27 10:18:11;;;;;;;38.25;25.50;;;;;17.30;94078.00;;;;7393524;19;20129;-77
2022/08/27 10:21:09;;;;;;;51.28;30.60;;;;;17.30;94083.00;;;;7393429;19;20140;-78
2022/08/27 10:24:04;;;;;;;39.78;27.25;;;;;17.40;94091.00;;;;7391507;19;20153;-79
2022/08/27 10:27:19;;;;;;;41.63;29.58;;;;;17.50;94083.00;;;;7393504;19;20148;-78
2022/08/27 10:29:52;;;;;;;50.20;31.73;;;;;17.50;94081.00;;;;7393087;19;20150;-78
2022/08/27 10:32:44;;;;;;;43.22;31.05;;;;;17.60;94081.00;;;;7393969;19;20160;-79
2022/08/27 10:35:25;;;;;;;48.75;31.30;;;;;17.70;94080.00;;;;7395453;19;20137;-77
2022/08/27 10:38:18;;;;;;;47.47;29.70;;;;;17.90;94084.00;;;;7393342;19;20627;-77
2022/08/27 10:41:13;;;;;;;46.95;31.08;;;;;17.90;94089.00;;;;7395171;19;20636;-77
2022/08/27 10:43:56;;;;;;;53.60;34.58;;;;;17.90;94083.00;;;;7392257;19;20215;-77
2022/08/27 10:46:57;;;;;;;46.00;32.58;;;;;18.00;94082.00;;;;7392621;19;20148;-77
2022/08/27 10:49:38;;;;;;;55.05;36.30;;;;;18.40;94078.00;;;;7392018;19;20155;-76
2022/08/27 10:52:37;;;;;;;61.03;38.08;;;;;18.70;94073.00;;;;7392798;19;20956;-78
2022/08/27 10:55:26;;;;;;;65.65;39.63;;;;;19.00;94080.00;;;;7391385;19;20151;-77
2022/08/27 10:58:18;;;;;;;56.65;36.13;;;;;18.90;94073.00;;;;7392266;19;20607;-78
2022/08/27 11:01:21;;;;;;;46.63;34.35;;;;;18.80;94084.00;;;;7390280;19;20153;-77
2022/08/27 11:04:05;;;;;;;49.60;32.80;;;;;18.60;94079.00;;;;7390487;19;20231;-76
2022/08/27 11:06:56;;;;;;;46.13;30.88;;;;;18.40;94080.00;;;;7392966;19;20612;-78
2022/08/27 11:09:38;;;;;;;38.55;28.98;;;;;18.40;94090.00;;;;7391321;19;20611;-79
2022/08/27 11:12:18;;;;;;;42.60;29.55;;;;;18.40;94092.00;;;;7390426;19;20576;-78
2022/08/27 11:15:08;;;;;;;39.42;30.35;;;;;18.30;94084.00;;;;7390377;19;20161;-76
2022/08/27 11:18:16;;;;;;;42.22;30.52;;;;;18.30;94094.00;;;;7389816;19;20163;-77
2022/08/27 11:20:58;;;;;;;38.90;30.48;;;;;18.30;94089.00;;;;7392210;19;20172;-77
2022/08/27 11:23:36;;;;;;;38.50;29.80;;;;;18.20;94089.00;;;;7390512;19;20502;-78
2022/08/27 11:26:05;;;;;;;41.70;29.05;;;;;18.20;94092.00;;;;7390852;19;20125;-78
2022/08/27 11:28:51;;;;;;;36.50;27.48;;;;;18.10;94086.00;;;;7394198;19;20170;-79
2022/08/27 11:31:33;;;;;;;35.72;28.75;;;;;18.30;94084.00;;;;7392739;19;20200;-77
2022/08/27 11:34:28;;;;;;;40.83;29.02;;;;;18.60;94072.00;;;;7391399;19;20496;-78
2022/08/27 11:36:58;;;;;;;38.10;29.30;;;;;19.00;94074.00;;;;7393789;19;20152;-77
2022/08/27 11:40:02;;;;;;;46.13;33.08;;;;;19.20;94077.00;;;;7389675;19;20487;-76
2022/08/27 11:42:40;;;;;;;44.17;32.30;;;;;19.00;94076.00;;;;7391698;19;20718;-77
2022/08/27 11:45:27;;;;;;;35.88;28.80;;;;;19.10;94078.00;;;;7393237;19;20137;-75
2022/08/27 11:48:00;;;;;;;37.25;28.42;;;;;18.90;94080.00;;;;7390510;19;20145;-77
2022/08/27 11:50:35;;;;;;;34.60;27.67;;;;;18.60;94086.00;;;;7391464;19;20159;-78
2022/08/27 11:53:05;;;;;;;30.27;26.05;;;;;18.20;94074.00;;;;7393509;19;20663;-76
2022/08/27 11:55:37;;;;;;;31.90;25.30;;;;;18.10;94080.00;;;;7389671;19;20133;-77
2022/08/27 11:58:18;;;;;;;34.33;26.40;;;;;18.30;94074.00;;;;7391335;19;20584;-76
2022/08/27 12:00:52;;;;;;;29.33;25.60;;;;;18.40;94080.00;;;;7390105;19;20644;-76
2022/08/27 12:03:33;;;;;;;34.47;26.20;;;;;18.80;94083.00;;;;7388435;19;20182;-76
2022/08/27 12:06:18;;;;;;;30.65;26.63;;;;;18.90;94073.00;;;;7393419;19;20619;-77
2022/08/27 12:09:04;;;;;;;29.45;25.65;;;;;19.00;94078.00;;;;7398678;19;20634;-77
2022/08/27 12:11:47;;;;;;;35.78;28.23;;;;;19.20;94072.00;;;;7398190;19;20156;-75
2022/08/27 12:14:44;;;;;;;35.40;27.85;;;;;19.30;94074.00;;;;7398728;19;20144;-76
2022/08/27 12:17:35;;;;;;;33.25;27.58;;;;;19.20;94072.00;;;;7400759;19;20622;-77
2022/08/27 12:20:18;;;;;;;30.75;26.25;;;;;19.10;94076.00;;;;7399168;19;20129;-78
2022/08/27 12:26:23;;;;;;;34.28;25.95;;;;;18.80;94074.00;;;;7397430;19;20589;-78
2022/08/27 12:29:28;;;;;;;33.72;27.42;;;;;18.90;94075.00;;;;7400081;19;20153;-77
2022/08/27 12:32:27;;;;;;;31.00;27.08;;;;;19.00;94063.00;;;;7399275;19;20137;-78
2022/08/27 12:35:07;;;;;;;35.53;27.98;;;;;18.80;94068.00;;;;7398974;19;20148;-77
2022/08/27 12:37:54;;;;;;;35.72;27.63;;;;;18.90;94065.00;;;;7395870;19;20156;-78
2022/08/27 12:40:49;;;;;;;30.73;27.05;;;;;19.00;94064.00;;;;7397694;19;20596;-78
2022/08/27 12:43:26;;;;;;;34.40;27.70;;;;;19.00;94064.00;;;;7397483;19;20126;-76
2022/08/27 12:45:59;;;;;;;36.25;30.30;;;;;19.40;94068.00;;;;7398704;19;20133;-75
2022/08/27 12:48:57;;;;;;;36.33;29.83;;;;;18.80;94066.00;;;;7398058;19;20152;-78
2022/08/27 12:51:37;;;;;;;35.90;28.73;;;;;19.00;94063.00;;;;7393382;19;20129;-77